Time;durP1;ratioP1;P1;durP2;ratioP2;P2;SDS_P1;SDS_P2;PMS_P1;PMS_P2;Temp;Humidity;BMP_temperature;BMP_pressure;BME280_temperature;BME280_humidity;BME280_pressure;Samples;Min_cycle;Max_cycle;Signal;HPM_P1;HPM_P2
2022/05/17 00:00:42;;;;;;;6.28;2.70;;;;;;;16.51;46.28;99749.63;5110959;28;20136;-83
2022/05/17 00:03:07;;;;;;;4.57;2.65;;;;;;;16.51;46.31;99747.00;5112491;28;20052;-83
2022/05/17 00:05:33;;;;;;;5.55;2.80;;;;;;;16.52;46.22;99746.03;5112157;28;20072;-83
2022/05/17 00:07:59;;;;;;;4.22;2.80;;;;;;;16.49;46.45;99748.91;5112374;28;20028;-83
2022/05/17 00:10:25;;;;;;;7.70;2.95;;;;;;;16.45;46.52;99743.03;5112148;28;20027;-83
2022/05/17 00:12:51;;;;;;;7.40;2.90;;;;;;;16.45;46.42;99749.13;5110975;28;20073;-83
2022/05/17 00:15:18;;;;;;;4.57;2.70;;;;;;;16.44;46.44;99741.34;5112075;28;20478;-82
2022/05/17 00:17:44;;;;;;;4.18;3.00;;;;;;;16.44;46.33;99743.97;5112228;28;20365;-82
2022/05/17 00:20:11;;;;;;;6.00;3.10;;;;;;;16.42;46.11;99740.59;5111121;28;20482;-83
2022/05/17 00:22:37;;;;;;;7.30;3.00;;;;;;;16.41;46.03;99747.66;5112150;28;20024;-82
2022/05/17 00:25:03;;;;;;;6.47;3.28;;;;;;;16.39;45.96;99748.69;5109346;28;20429;-82
2022/05/17 00:27:29;;;;;;;6.68;2.80;;;;;;;16.30;46.30;99730.94;5109260;28;20039;-82
2022/05/17 00:29:54;;;;;;;5.45;3.55;;;;;;;16.33;46.20;99728.94;5109528;28;20488;-82
2022/05/17 00:32:20;;;;;;;13.25;7.25;;;;;;;16.30;46.09;99731.78;5109281;28;20067;-82
2022/05/17 00:34:46;;;;;;;10.60;5.78;;;;;;;16.29;46.36;99729.25;5109228;28;20139;-82
2022/05/17 00:37:13;;;;;;;4.80;3.42;;;;;;;16.25;46.33;99722.53;5109500;28;20039;-82
2022/05/17 00:39:38;;;;;;;6.85;3.83;;;;;;;16.25;46.43;99720.75;5092006;28;20116;-82
2022/05/17 00:42:04;;;;;;;5.80;3.88;;;;;;;16.26;46.38;99722.41;5109577;28;20078;-82
2022/05/17 00:44:45;;;;;;;4.88;3.00;;;;;;;16.17;46.16;99713.38;5108936;28;20118;-82
2022/05/17 00:47:17;;;;;;;3.53;2.60;;;;;;;16.25;46.21;99733.03;5092352;28;20024;-82
2022/05/17 00:49:56;;;;;;;3.45;2.70;;;;;;;16.21;45.99;99720.09;5109324;28;20107;-83
2022/05/17 00:52:29;;;;;;;2.67;2.38;;;;;;;16.15;45.97;99711.81;5109267;28;20058;-82
2022/05/17 00:54:58;;;;;;;6.32;2.92;;;;;;;16.18;46.15;99724.72;5092903;28;20042;-83
2022/05/17 00:57:52;;;;;;;7.18;2.42;;;;;;;16.18;46.09;99724.72;5095691;28;20042;-83
2022/05/17 01:00:19;;;;;;;4.60;2.60;;;;;;;16.11;46.30;99713.81;4995888;28;20038;-82
2022/05/17 01:02:57;;;;;;;5.22;2.58;;;;;;;16.13;46.20;99722.41;4996208;28;20545;-82
2022/05/17 01:05:24;;;;;;;3.67;2.47;;;;;;;16.08;46.22;99719.25;5019176;28;20041;-83
2022/05/17 01:07:53;;;;;;;3.13;2.33;;;;;;;16.09;46.39;99723.56;5015653;28;20026;-82
2022/05/17 01:10:19;;;;;;;3.45;2.60;;;;;;;16.10;46.35;99719.19;5032127;28;20037;-82
2022/05/17 01:14:57;;;;;;;3.88;2.50;;;;;;;16.05;46.38;99701.06;5032322;28;20505;-82
2022/05/17 01:15:30;;;;;;;6.68;2.80;;;;;;;16.06;46.66;99710.66;5031960;28;20033;-82
2022/05/17 01:17:56;;;;;;;5.13;2.40;;;;;;;16.03;46.59;99704.78;5032204;28;20044;-83
2022/05/17 01:20:21;;;;;;;3.38;2.45;;;;;;;15.98;46.77;99693.75;5031753;28;20025;-82
2022/05/17 01:22:46;;;;;;;4.88;2.63;;;;;;;15.94;46.91;99693.94;5032195;28;20398;-82
2022/05/17 01:25:12;;;;;;;6.53;2.72;;;;;;;15.99;47.01;99698.03;5032064;28;20108;-82
2022/05/17 01:27:43;;;;;;;3.22;2.40;;;;;;;15.99;47.03;99700.66;5015271;28;20033;-82
2022/05/17 01:30:19;;;;;;;12.50;2.72;;;;;;;15.92;47.07;99692.34;5032135;28;20109;-82
2022/05/17 01:32:44;;;;;;;4.05;2.33;;;;;;;15.95;47.42;99705.28;5015444;28;20083;-82
2022/05/17 01:35:10;;;;;;;5.00;2.92;;;;;;;15.95;47.46;99707.91;5031918;28;20037;-82
2022/05/17 01:37:35;;;;;;;6.32;2.83;;;;;;;15.89;47.54;99692.59;5104138;28;20046;-82
2022/05/17 01:40:01;;;;;;;7.55;3.00;;;;;;;15.90;47.78;99704.75;5114691;28;20031;-82
2022/05/17 01:42:26;;;;;;;6.05;2.90;;;;;;;15.86;47.81;99704.13;5071073;28;20120;-82
2022/05/17 01:44:52;;;;;;;6.13;2.90;;;;;;;15.81;48.10;99702.75;5054748;28;20056;-82
2022/05/17 01:47:17;;;;;;;5.03;2.75;;;;;;;15.83;48.19;99698.22;5071512;28;20033;-82
2022/05/17 01:49:43;;;;;;;4.97;2.97;;;;;;;15.81;48.27;99700.97;5071382;28;20032;-82
2022/05/17 01:52:10;;;;;;;5.07;2.22;;;;;;;15.74;48.47;99683.09;5054876;28;20040;-82
2022/05/17 01:54:35;;;;;;;4.97;3.13;;;;;;;15.76;48.33;99692.56;5071233;28;20028;-82
2022/05/17 01:57:01;;;;;;;3.17;2.55;;;;;;;15.68;48.69;99674.69;5054894;28;20036;-83
2022/05/17 01:59:27;;;;;;;5.68;2.92;;;;;;;15.70;48.70;99678.06;5054226;28;20441;-82
2022/05/17 02:01:52;;;;;;;5.53;3.00;;;;;;;15.65;48.88;99674.91;5071266;28;20647;-82
2022/05/17 02:04:17;;;;;;;3.60;2.63;;;;;;;15.66;48.98;99675.75;5071296;28;20028;-82
2022/05/17 02:06:43;;;;;;;7.82;2.97;;;;;;;15.70;49.05;99670.16;5070384;28;20043;-82
2022/05/17 02:09:09;;;;;;;5.93;2.70;;;;;;;15.70;49.10;99666.72;5054359;28;20159;-82
2022/05/17 02:11:34;;;;;;;5.50;2.70;;;;;;;15.56;49.40;99649.25;5071048;28;20032;-83
2022/05/17 02:13:59;;;;;;;4.53;2.80;;;;;;;15.67;49.56;99661.66;5102571;28;20028;-82
2022/05/17 02:16:25;;;;;;;6.72;3.15;;;;;;;15.65;49.84;99660.94;5113811;28;20388;-82
2022/05/17 02:18:50;;;;;;;6.00;3.35;;;;;;;15.64;50.04;99656.59;5112786;28;20047;-82
2022/05/17 02:21:16;;;;;;;4.22;2.88;;;;;;;15.60;50.08;99663.84;5112838;28;20030;-82
2022/05/17 02:23:42;;;;;;;7.00;3.08;;;;;;;15.62;50.03;99659.31;5112509;28;20035;-82
2022/05/17 02:26:07;;;;;;;4.60;3.00;;;;;;;15.60;50.19;99660.38;5112734;28;20023;-82
2022/05/17 02:28:33;;;;;;;3.72;2.97;;;;;;;15.63;50.01;99665.41;5113614;28;20023;-83
2022/05/17 02:30:58;;;;;;;6.32;3.30;;;;;;;15.60;49.99;99657.75;5113777;28;20496;-83
2022/05/17 02:33:24;;;;;;;6.50;3.15;;;;;;;15.66;50.11;99657.34;5113641;28;20038;-82
2022/05/17 02:35:49;;;;;;;5.28;2.90;;;;;;;15.69;50.06;99673.75;5113859;28;20112;-82
2022/05/17 02:38:14;;;;;;;5.95;2.90;;;;;;;15.70;49.98;99666.72;5113723;28;20035;-82
2022/05/17 02:40:40;;;;;;;6.47;2.80;;;;;;;15.64;50.11;99661.84;5113314;28;20042;-82
2022/05/17 02:43:06;;;;;;;5.38;3.30;;;;;;;15.68;50.15;99666.81;5113602;28;20112;-83
2022/05/17 02:45:32;;;;;;;5.68;3.20;;;;;;;15.63;50.07;99653.13;5112004;28;20034;-82
2022/05/17 02:47:57;;;;;;;5.13;2.90;;;;;;;15.71;49.88;99666.59;5113187;28;20044;-82
2022/05/17 02:50:23;;;;;;;4.93;3.28;;;;;;;15.71;49.80;99663.97;5113620;28;20044;-82
2022/05/17 02:52:49;;;;;;;5.57;3.00;;;;;;;15.66;49.86;99647.69;5113408;28;20111;-83
2022/05/17 02:55:15;;;;;;;5.47;3.00;;;;;;;15.77;49.84;99665.34;5112108;28;20148;-82
2022/05/17 02:57:40;;;;;;;5.40;3.25;;;;;;;15.76;49.78;99668.06;5111820;28;20127;-82
2022/05/17 03:00:10;;;;;;;4.25;2.90;;;;;;;15.73;49.72;99663.88;5113016;28;20028;-82
2022/05/17 03:02:36;;;;;;;4.45;2.90;;;;;;;15.77;49.83;99675.88;5113053;28;20028;-82
2022/05/17 03:05:01;;;;;;;5.70;3.15;;;;;;;15.74;50.02;99667.34;5111971;28;20053;-82
2022/05/17 03:07:26;;;;;;;9.15;3.40;;;;;;;15.77;50.17;99673.25;5111527;28;20114;-82
2022/05/17 03:09:52;;;;;;;8.93;3.08;;;;;;;15.69;50.16;99668.50;5113080;28;20039;-82
2022/05/17 03:12:17;;;;;;;6.68;3.00;;;;;;;15.74;50.27;99683.09;5113348;28;20415;-82
2022/05/17 03:14:43;;;;;;;5.80;2.88;;;;;;;15.71;50.67;99687.59;5111320;28;20028;-83
2022/05/17 03:17:13;;;;;;;4.28;2.80;;;;;;;15.64;50.89;99683.72;5113061;28;20457;-82
2022/05/17 03:19:40;;;;;;;3.53;2.97;;;;;;;15.58;51.42;99667.50;5111843;28;20019;-82
2022/05/17 03:22:06;;;;;;;6.60;3.20;;;;;;;15.57;51.56;99673.69;5113222;28;20020;-83
2022/05/17 03:24:31;;;;;;;4.47;3.30;;;;;;;15.58;51.58;99685.88;5111229;28;20067;-82
2022/05/17 03:26:57;;;;;;;4.70;3.10;;;;;;;15.55;51.92;99683.44;5112824;28;20062;-82
2022/05/17 03:29:23;;;;;;;5.55;3.25;;;;;;;15.51;52.38;99684.63;5112660;28;20612;-83
2022/05/17 03:31:49;;;;;;;6.80;3.35;;;;;;;15.43;52.22;99678.09;5111380;28;20118;-83
2022/05/17 03:34:14;;;;;;;4.35;3.17;;;;;;;15.46;52.37;99690.16;5113024;28;20461;-82
2022/05/17 03:36:40;;;;;;;5.20;3.42;;;;;;;15.38;52.50;99681.94;5112515;28;20019;-82
2022/05/17 03:39:05;;;;;;;6.85;3.70;;;;;;;15.39;52.88;99686.28;5111214;28;20465;-82
2022/05/17 03:41:30;;;;;;;6.43;3.60;;;;;;;15.40;52.77;99688.78;5112617;28;20036;-83
2022/05/17 03:43:56;;;;;;;7.47;3.38;;;;;;;15.38;52.59;99689.81;5112195;27;20125;-82
2022/05/17 03:46:22;;;;;;;9.75;3.70;;;;;;;15.38;52.80;99692.44;5112433;28;20028;-82
2022/05/17 03:48:48;;;;;;;6.78;4.13;;;;;;;15.38;52.81;99695.06;5110674;28;20079;-82
2022/05/17 03:51:15;;;;;;;6.43;3.55;;;;;;;15.29;52.93;99687.78;5112666;28;20067;-82
2022/05/17 03:53:42;;;;;;;7.15;3.33;;;;;;;15.39;52.86;99691.50;5112369;28;20028;-82
2022/05/17 03:56:07;;;;;;;4.57;3.40;;;;;;;15.39;52.89;99683.66;5111139;28;20024;-82
2022/05/17 03:58:32;;;;;;;4.53;3.08;;;;;;;15.39;52.43;99681.03;5112103;28;20034;-82
2022/05/17 04:00:58;;;;;;;11.95;3.75;;;;;;;15.38;52.58;99682.81;5112374;28;20031;-82
2022/05/17 04:03:23;;;;;;;5.75;3.30;;;;;;;15.48;52.36;99696.16;5111069;28;20031;-82
2022/05/17 04:05:49;;;;;;;10.15;3.90;;;;;;;15.51;52.35;99695.97;5110766;28;20123;-82
2022/05/17 04:08:14;;;;;;;7.65;3.60;;;;;;;15.55;52.03;99694.81;5112193;28;20032;-82
2022/05/17 04:10:39;;;;;;;5.80;3.35;;;;;;;15.57;52.16;99686.81;5112232;28;20042;-83
2022/05/17 04:13:05;;;;;;;6.75;3.92;;;;;;;15.58;52.03;99680.63;5112435;28;20031;-82
2022/05/17 04:15:31;;;;;;;9.57;4.22;;;;;;;15.55;52.04;99683.44;5110728;28;20020;-82
2022/05/17 04:17:56;;;;;;;7.85;3.65;;;;;;;15.58;52.19;99693.75;5110993;28;20104;-82
2022/05/17 04:20:23;;;;;;;6.72;3.40;;;;;;;15.59;52.18;99691.03;5110799;28;20024;-82
2022/05/17 04:22:50;;;;;;;8.30;3.70;;;;;;;15.57;52.34;99679.78;5111963;28;20031;-83
2022/05/17 04:25:18;;;;;;;6.68;4.00;;;;;;;15.57;52.52;99690.28;5112024;28;20024;-82
2022/05/17 04:27:46;;;;;;;5.53;3.45;;;;;;;15.60;52.65;99691.88;5110262;28;20031;-82
2022/05/17 04:30:12;;;;;;;5.90;3.13;;;;;;;15.60;52.78;99689.25;5112034;28;20051;-82
2022/05/17 04:32:37;;;;;;;5.85;3.50;;;;;;;15.56;52.89;99686.00;5115975;28;20031;-82
2022/05/17 04:35:04;;;;;;;8.18;3.60;;;;;;;15.57;53.01;99692.91;5114835;28;20081;-81
2022/05/17 04:37:29;;;;;;;8.25;3.47;;;;;;;15.58;53.01;99705.09;5115966;28;20104;-81
2022/05/17 04:39:55;;;;;;;6.15;3.67;;;;;;;15.57;53.08;99703.41;5115931;28;20114;-82
2022/05/17 04:42:20;;;;;;;5.65;3.60;;;;;;;15.61;53.09;99707.53;5115848;28;20107;-83
2022/05/17 04:44:45;;;;;;;5.40;3.65;;;;;;;15.57;53.17;99692.91;5116030;28;20024;-78
2022/05/17 04:47:11;;;;;;;8.55;3.88;;;;;;;15.69;53.85;99717.56;5115880;28;20539;-78
2022/05/17 04:49:37;;;;;;;7.20;3.70;;;;;;;15.70;53.41;99713.97;5115331;28;20048;-78
2022/05/17 04:52:03;;;;;;;8.02;3.53;;;;;;;15.74;53.13;99712.81;5115780;28;20043;-78
2022/05/17 04:54:29;;;;;;;7.75;3.63;;;;;;;15.77;52.98;99717.88;5115756;28;20076;-78
2022/05/17 04:56:54;;;;;;;4.72;3.42;;;;;;;15.81;52.63;99716.72;5115314;28;20481;-78
2022/05/17 04:59:20;;;;;;;6.50;3.63;;;;;;;15.77;53.23;99707.38;5115723;28;20031;-78
2022/05/17 05:01:46;;;;;;;6.75;3.20;;;;;;;15.86;52.79;99712.00;5115435;28;20028;-78
2022/05/17 05:04:12;;;;;;;4.82;3.22;;;;;;;15.87;52.85;99708.44;5115443;28;20020;-78
2022/05/17 05:06:38;;;;;;;6.72;3.35;;;;;;;15.96;52.57;99727.97;5115636;28;20039;-78
2022/05/17 05:09:03;;;;;;;10.10;3.45;;;;;;;15.94;52.32;99717.59;5115487;28;20024;-78
2022/05/17 05:11:28;;;;;;;6.22;3.53;;;;;;;15.90;52.15;99716.09;5115394;28;20510;-78
2022/05/17 05:13:54;;;;;;;6.43;3.70;;;;;;;15.91;52.19;99715.16;5115298;28;20024;-78
2022/05/17 05:16:19;;;;;;;5.15;3.20;;;;;;;15.96;52.02;99717.47;5115436;28;20449;-79
2022/05/17 05:18:45;;;;;;;6.97;3.80;;;;;;;16.01;51.93;99719.78;5115193;28;20030;-78
2022/05/17 05:21:13;;;;;;;5.68;3.28;;;;;;;16.03;52.07;99717.91;5115326;28;20066;-78
2022/05/17 05:23:40;;;;;;;8.63;4.00;;;;;;;16.03;52.30;99713.50;5114851;28;20015;-78
2022/05/17 05:26:06;;;;;;;7.03;3.35;;;;;;;16.12;51.83;99722.53;5074923;28;20044;-78
2022/05/17 05:28:32;;;;;;;5.93;3.28;;;;;;;16.19;51.59;99721.16;5092176;28;20032;-78
2022/05/17 05:30:58;;;;;;;7.18;3.35;;;;;;;16.25;51.09;99725.16;5091985;28;20043;-78
2022/05/17 05:33:24;;;;;;;5.60;3.08;;;;;;;16.28;50.99;99717.06;5075048;28;20076;-79
2022/05/17 05:35:52;;;;;;;4.30;3.20;;;;;;;16.37;50.69;99722.53;5091827;28;20059;-78
2022/05/17 05:38:18;;;;;;;4.68;3.25;;;;;;;16.45;50.66;99727.25;5092249;28;20024;-79
2022/05/17 05:40:44;;;;;;;5.38;3.53;;;;;;;16.56;50.23;99734.38;5091490;28;20039;-78
2022/05/17 05:43:09;;;;;;;9.57;3.30;;;;;;;16.66;50.23;99732.78;5090833;28;20036;-78
2022/05/17 05:45:34;;;;;;;5.68;3.60;;;;;;;16.75;50.23;99726.06;5074583;28;20529;-79
2022/05/17 05:48:00;;;;;;;5.20;3.30;;;;;;;16.85;50.10;99720.03;5091583;28;20047;-78
2022/05/17 05:50:26;;;;;;;5.88;3.60;;;;;;;17.03;49.71;99728.41;5091832;28;20170;-79
2022/05/17 05:53:00;;;;;;;5.93;3.72;;;;;;;17.34;49.26;99741.97;5091500;28;20409;-79
2022/05/17 05:55:26;;;;;;;6.13;3.58;;;;;;;17.54;48.76;99736.09;5091553;28;20074;-79
2022/05/17 05:57:51;;;;;;;4.28;3.00;;;;;;;17.84;48.36;99733.00;5110014;28;20078;-79
2022/05/17 06:00:19;;;;;;;5.18;3.17;;;;;;;18.32;47.25;99740.72;5114372;28;20594;-79
2022/05/17 06:02:45;;;;;;;6.38;3.58;;;;;;;18.91;45.70;99737.88;5112631;28;20034;-79
2022/05/17 06:05:11;;;;;;;7.85;3.72;;;;;;;19.54;44.67;99732.78;5114424;28;20032;-79
2022/05/17 06:07:37;;;;;;;5.65;3.35;;;;;;;20.19;43.43;99737.03;5113956;28;20027;-79
2022/05/17 06:10:06;;;;;;;4.47;3.25;;;;;;;20.64;41.98;99749.06;5114445;28;20115;-78
2022/05/17 06:12:31;;;;;;;6.72;3.63;;;;;;;20.77;40.91;99754.97;5114242;28;20051;-79
2022/05/17 06:14:57;;;;;;;6.65;3.47;;;;;;;20.79;40.84;99754.88;5113988;28;20115;-79
2022/05/17 06:17:27;;;;;;;6.07;4.00;;;;;;;20.83;40.96;99745.69;5114225;28;20508;-79
2022/05/17 06:19:56;;;;;;;4.70;3.10;;;;;;;20.81;41.03;99748.44;5112436;28;20034;-79
2022/05/17 06:22:22;;;;;;;6.85;3.60;;;;;;;20.67;41.46;99746.19;5113921;28;20032;-79
2022/05/17 06:24:47;;;;;;;6.75;3.97;;;;;;;20.66;41.64;99742.69;5113799;28;20043;-79
2022/05/17 06:27:12;;;;;;;7.70;3.70;;;;;;;20.68;40.97;99746.03;5113924;28;20443;-79
2022/05/17 06:29:38;;;;;;;4.80;3.35;;;;;;;20.74;40.66;99749.97;5113960;28;20041;-79
2022/05/17 06:32:05;;;;;;;4.93;3.70;;;;;;;20.96;39.98;99753.38;5113856;28;20035;-79
2022/05/17 06:34:31;;;;;;;8.30;3.75;;;;;;;21.04;39.53;99757.03;5112297;28;20036;-79
2022/05/17 06:36:56;;;;;;;9.93;4.13;;;;;;;21.04;39.94;99764.13;5113458;28;20089;-79
2022/05/17 06:39:21;;;;;;;6.47;3.67;;;;;;;21.17;40.51;99762.06;5113445;28;20059;-79
2022/05/17 06:41:47;;;;;;;6.18;3.58;;;;;;;20.97;40.31;99755.88;5111996;28;20045;-79
2022/05/17 06:44:13;;;;;;;5.85;3.65;;;;;;;20.78;40.59;99755.84;5113434;28;20020;-79
2022/05/17 06:46:39;;;;;;;6.10;4.03;;;;;;;20.58;41.03;99753.09;5112856;28;20524;-79
2022/05/17 06:49:04;;;;;;;6.30;4.00;;;;;;;20.57;41.20;99762.03;5113406;28;20043;-83
2022/05/17 06:51:30;;;;;;;6.03;3.47;;;;;;;20.66;40.91;99761.22;5111889;28;20051;-82
2022/05/17 06:53:55;;;;;;;7.97;3.70;;;;;;;20.77;41.12;99754.16;5111307;28;20114;-82
2022/05/17 06:56:21;;;;;;;6.43;3.70;;;;;;;20.65;41.58;99753.44;5112097;28;20077;-83
2022/05/17 06:58:46;;;;;;;7.20;3.40;;;;;;;20.37;42.08;99739.06;5111786;28;20169;-83
2022/05/17 07:01:11;;;;;;;7.00;3.63;;;;;;;20.10;42.55;99747.53;5111939;28;20047;-82
2022/05/17 07:03:37;;;;;;;6.60;4.28;;;;;;;19.81;43.25;99750.81;5113239;28;20028;-83
2022/05/17 07:06:03;;;;;;;5.63;3.80;;;;;;;19.62;44.14;99740.94;5112790;28;20031;-82
2022/05/17 07:08:28;;;;;;;9.63;4.32;;;;;;;19.41;44.66;99745.31;5111887;28;20034;-82
2022/05/17 07:13:37;;;;;;;7.53;4.13;;;;;;;19.16;45.18;99742.00;5113292;28;20483;-82
2022/05/17 07:16:03;;;;;;;9.82;4.10;;;;;;;19.23;45.54;99760.03;5112668;28;20106;-83
2022/05/17 07:18:29;;;;;;;10.57;3.67;;;;;;;19.28;45.72;99755.19;5112495;28;20027;-82
2022/05/17 07:20:55;;;;;;;8.85;4.30;;;;;;;19.49;45.53;99756.09;5112759;28;20453;-81
2022/05/17 07:23:24;;;;;;;7.80;3.78;;;;;;;19.56;44.84;99756.44;5112771;28;20077;-82
2022/05/17 07:25:50;;;;;;;10.63;3.95;;;;;;;19.52;45.12;99761.13;5112486;28;20468;-81
2022/05/17 07:28:18;;;;;;;5.82;3.88;;;;;;;19.35;45.07;99756.38;5111321;28;20024;-81
2022/05/17 07:30:45;;;;;;;7.47;3.60;;;;;;;19.29;45.51;99768.28;5112545;28;20468;-81
2022/05/17 07:33:11;;;;;;;8.20;3.97;;;;;;;19.12;46.03;99763.50;5111398;28;20395;-81
2022/05/17 07:35:36;;;;;;;6.82;4.22;;;;;;;19.03;46.23;99765.09;5112906;28;20020;-81
2022/05/17 07:38:02;;;;;;;7.57;3.92;;;;;;;18.94;46.45;99765.81;5111178;28;20345;-81
2022/05/17 07:40:29;;;;;;;8.75;3.75;;;;;;;19.03;46.47;99770.38;5112510;28;20020;-83
2022/05/17 07:42:55;;;;;;;6.63;3.88;;;;;;;18.97;46.48;99770.03;5112500;28;20059;-82
2022/05/17 07:45:20;;;;;;;4.82;3.67;;;;;;;18.93;46.95;99774.72;5112537;27;20027;-82
2022/05/17 07:47:46;;;;;;;8.55;4.07;;;;;;;18.92;47.07;99775.69;5111927;28;20056;-82
2022/05/17 07:50:12;;;;;;;6.28;3.42;;;;;;;19.05;47.15;99778.19;5111256;28;20392;-82
2022/05/17 07:52:38;;;;;;;7.18;4.13;;;;;;;19.29;46.72;99796.47;5112151;28;20430;-82
2022/05/17 07:55:04;;;;;;;6.35;3.90;;;;;;;19.32;46.41;99791.78;5110787;28;20016;-82
2022/05/17 07:57:30;;;;;;;5.40;3.50;;;;;;;19.33;46.32;99798.75;5112289;28;20059;-82
2022/05/17 07:59:55;;;;;;;5.60;3.83;;;;;;;19.28;46.57;99802.72;5111890;28;20104;-82
2022/05/17 08:02:21;;;;;;;6.53;4.05;;;;;;;19.17;46.84;99806.22;5110594;28;20384;-82
2022/05/17 08:04:47;;;;;;;6.75;3.80;;;;;;;19.12;46.86;99798.66;5111591;28;20020;-82
2022/05/17 08:07:12;;;;;;;7.50;5.57;;;;;;;19.10;47.23;99812.97;5110797;28;20115;-82
2022/05/17 08:09:38;;;;;;;6.78;4.65;;;;;;;19.13;47.20;99803.00;5110590;28;20145;-82
2022/05/17 08:12:07;;;;;;;6.40;4.60;;;;;;;19.22;47.59;99812.00;5111607;28;20055;-82
2022/05/17 08:14:34;;;;;;;8.82;4.47;;;;;;;19.36;47.39;99810.88;5110481;28;20109;-82
2022/05/17 08:17:00;;;;;;;7.85;4.50;;;;;;;19.67;46.98;99822.47;5110156;28;20438;-82
2022/05/17 08:19:26;;;;;;;13.05;5.75;;;;;;;19.81;46.24;99824.00;5111786;28;20530;-82
2022/05/17 08:21:51;;;;;;;10.65;5.03;;;;;;;19.99;45.79;99821.63;5111446;28;20031;-82
2022/05/17 08:24:17;;;;;;;6.95;4.20;;;;;;;20.05;44.76;99829.03;5112434;28;20031;-82
2022/05/17 08:29:26;;;;;;;5.88;3.78;;;;;;;20.22;45.35;99828.47;5111988;28;20078;-82
2022/05/17 08:34:35;;;;;;;7.88;4.32;;;;;;;20.41;44.79;99828.59;5111960;28;20444;-83
2022/05/17 08:37:01;;;;;;;4.53;3.40;;;;;;;20.41;44.49;99833.91;5110541;28;20115;-83
2022/05/17 08:39:28;;;;;;;7.22;3.38;;;;;;;20.32;44.20;99842.63;5110617;28;20550;-82
2022/05/17 08:41:58;;;;;;;6.63;3.80;;;;;;;20.33;44.67;99835.50;5110396;28;20020;-82
2022/05/17 08:44:43;;;;;;;6.70;3.83;;;;;;;20.19;44.46;99840.16;5112063;28;20479;-82
2022/05/17 08:47:19;;;;;;;7.50;3.70;;;;;;;20.03;45.10;99837.09;5110439;28;20058;-82
2022/05/17 08:49:53;;;;;;;8.20;3.70;;;;;;;19.93;46.11;99841.47;5111548;28;20039;-82
2022/05/17 08:52:22;;;;;;;5.70;3.70;;;;;;;19.77;46.63;99841.06;5110420;28;20539;-82
2022/05/17 08:55:11;;;;;;;8.02;3.63;;;;;;;19.62;47.22;99846.63;5111771;28;20035;-82
2022/05/17 08:57:41;;;;;;;4.90;3.28;;;;;;;19.45;47.40;99839.19;5111790;28;20057;-82
2022/05/17 09:00:16;;;;;;;8.80;3.83;;;;;;;19.44;47.55;99854.19;5111419;28;20524;-82
2022/05/17 09:02:56;;;;;;;6.85;3.70;;;;;;;19.32;47.68;99844.63;5111620;28;20016;-82
2022/05/17 09:05:45;;;;;;;7.25;3.67;;;;;;;19.37;47.97;99858.28;5111718;28;20056;-82
2022/05/17 09:08:28;;;;;;;5.03;3.38;;;;;;;19.39;48.37;99856.38;5011979;28;20041;-82
2022/05/17 09:11:08;;;;;;;6.35;3.58;;;;;;;19.40;48.47;99863.34;5028502;28;20060;-82
2022/05/17 09:13:36;;;;;;;9.30;3.40;;;;;;;19.42;48.68;99861.44;5012200;28;20030;-82
2022/05/17 09:16:02;;;;;;;7.85;3.40;;;;;;;19.41;48.57;99850.97;5028450;28;20037;-82
2022/05/17 09:18:30;;;;;;;7.45;3.90;;;;;;;19.36;48.79;99859.25;5031556;28;20079;-82
2022/05/17 09:20:55;;;;;;;6.03;3.90;;;;;;;19.31;49.03;99857.97;5031642;28;20597;-82
2022/05/17 09:23:21;;;;;;;5.28;3.42;;;;;;;19.28;49.10;99860.84;5032420;28;20038;-82
2022/05/17 09:25:58;;;;;;;6.93;3.83;;;;;;;19.24;49.04;99862.88;5015374;28;20706;-82
2022/05/17 09:28:27;;;;;;;4.95;3.28;;;;;;;19.15;50.07;99848.59;5032091;28;20072;-82
2022/05/17 09:31:23;;;;;;;7.18;3.72;;;;;;;19.11;50.08;99863.00;5015111;28;20033;-82
2022/05/17 09:33:50;;;;;;;5.53;3.45;;;;;;;18.98;50.79;99850.88;5032037;28;20053;-83
2022/05/17 09:36:24;;;;;;;8.52;4.03;;;;;;;18.88;50.99;99851.63;5031772;28;20034;-82
2022/05/17 09:38:52;;;;;;;6.30;3.83;;;;;;;18.80;51.48;99861.09;5031495;28;20069;-82
2022/05/17 09:41:25;;;;;;;7.85;3.80;;;;;;;18.76;51.70;99854.38;5031773;28;20387;-82
2022/05/17 09:44:00;;;;;;;6.30;3.38;;;;;;;18.70;51.57;99853.84;5014940;28;20521;-82
2022/05/17 09:46:30;;;;;;;4.60;2.92;;;;;;;18.70;51.49;99869.69;5112563;28;20043;-82
2022/05/17 09:54:48;;;;;;;5.32;3.58;;;;;;;18.57;52.47;99870.72;5092117;28;20102;-82
2022/05/17 09:57:24;;;;;;;5.97;3.90;;;;;;;18.57;52.41;99868.91;5091482;28;20028;-82
2022/05/17 10:00:08;;;;;;;9.15;3.70;;;;;;;18.57;52.48;99868.09;5074520;28;20036;-82
2022/05/17 10:02:40;;;;;;;16.75;3.50;;;;;;;18.55;52.35;99870.00;5091487;28;20039;-82
2022/05/17 10:05:29;;;;;;;8.80;3.83;;;;;;;18.57;52.56;99873.34;5074121;28;20126;-82
2022/05/17 10:08:04;;;;;;;5.05;3.47;;;;;;;18.60;52.89;99873.97;5074120;28;20024;-82
2022/05/17 10:10:38;;;;;;;5.93;3.40;;;;;;;18.55;52.61;99877.94;5091633;28;20036;-83
2022/05/17 10:13:18;;;;;;;4.00;3.30;;;;;;;18.51;52.86;99866.75;5091024;28;20373;-82
2022/05/17 10:15:48;;;;;;;13.63;4.38;;;;;;;18.56;53.02;99880.44;5091067;28;20040;-82
2022/05/17 10:18:40;;;;;;;9.98;4.38;;;;;;;18.55;53.09;99878.75;5074045;28;20511;-82
2022/05/17 10:21:30;;;;;;;6.47;3.75;;;;;;;18.60;53.16;99881.88;5029771;28;20076;-82
2022/05/17 10:24:04;;;;;;;4.53;3.58;;;;;;;18.60;53.73;99876.59;4952690;29;20040;-82
2022/05/17 10:26:37;;;;;;;5.60;3.70;;;;;;;18.66;53.96;99875.28;4952856;29;20536;-82
2022/05/17 10:29:16;;;;;;;9.32;3.80;;;;;;;18.70;53.69;99876.75;4952146;28;20160;-81
2022/05/17 10:31:50;;;;;;;7.80;3.67;;;;;;;18.78;53.35;99887.56;4952842;29;20039;-81
2022/05/17 10:34:46;;;;;;;4.25;3.53;;;;;;;18.78;53.48;99886.75;4952570;29;20039;-81
2022/05/17 10:37:21;;;;;;;6.70;4.13;;;;;;;18.80;53.43;99892.75;4952439;29;20412;-82
2022/05/17 10:39:58;;;;;;;4.60;3.60;;;;;;;18.83;53.39;99901.25;4952612;29;20576;-82
2022/05/17 10:42:24;;;;;;;5.90;3.60;;;;;;;18.81;53.23;99897.06;4952662;29;20059;-82
2022/05/17 10:44:54;;;;;;;5.70;3.58;;;;;;;18.82;53.25;99899.56;4952333;28;20043;-82
2022/05/17 10:47:41;;;;;;;6.68;4.07;;;;;;;18.86;53.17;99911.56;4935174;29;20039;-82
2022/05/17 10:50:21;;;;;;;6.55;3.28;;;;;;;18.88;53.24;99914.13;4947544;29;20039;-82
2022/05/17 10:53:10;;;;;;;7.45;4.20;;;;;;;18.87;53.14;99907.97;4926016;29;20118;-82
2022/05/17 10:55:56;;;;;;;8.13;4.47;;;;;;;18.91;53.32;99916.50;4949899;29;20047;-82
2022/05/17 10:58:53;;;;;;;5.95;4.25;;;;;;;18.84;51.61;99910.88;5002552;28;20073;-82
2022/05/17 11:01:45;;;;;;;9.60;4.68;;;;;;;18.74;50.85;99917.78;5028618;28;20157;-82
2022/05/17 11:04:14;;;;;;;9.90;5.25;;;;;;;18.70;49.95;99932.16;5049777;28;20041;-82
2022/05/17 11:06:50;;;;;;;8.10;3.95;;;;;;;18.65;49.53;99929.00;5050040;28;20123;-83
2022/05/17 11:09:24;;;;;;;6.75;4.22;;;;;;;18.61;49.84;99924.94;5049561;28;20506;-82
2022/05/17 11:12:04;;;;;;;6.07;3.63;;;;;;;18.56;50.28;99914.72;5049932;28;20048;-83
2022/05/17 11:14:47;;;;;;;6.70;3.97;;;;;;;18.60;49.98;99934.66;5010174;28;20029;-82
2022/05/17 11:17:31;;;;;;;7.95;3.92;;;;;;;18.56;50.19;99940.28;5009793;28;20030;-83
2022/05/17 11:20:05;;;;;;;9.35;3.38;;;;;;;18.49;50.35;99946.94;5009939;28;20045;-83
2022/05/17 11:22:48;;;;;;;8.20;4.10;;;;;;;18.45;50.35;99941.06;5010436;28;20428;-82
2022/05/17 11:25:36;;;;;;;10.00;4.15;;;;;;;18.43;49.68;99946.47;5009904;28;20053;-82
2022/05/17 11:28:39;;;;;;;8.68;4.15;;;;;;;18.40;49.70;99946.69;5009809;28;20061;-82
2022/05/17 11:31:12;;;;;;;6.45;3.63;;;;;;;18.38;50.21;99945.97;5009760;28;20455;-82
2022/05/17 11:33:40;;;;;;;6.88;3.58;;;;;;;18.36;50.61;99941.75;5009858;28;20030;-82
2022/05/17 11:36:10;;;;;;;8.48;4.03;;;;;;;18.44;50.72;99956.03;5009742;28;20152;-82
2022/05/17 11:38:35;;;;;;;8.27;4.22;;;;;;;18.50;50.58;99954.78;5047716;28;20078;-82
2022/05/17 11:41:04;;;;;;;6.38;3.88;;;;;;;18.55;50.10;99952.63;5071599;28;20098;-82
2022/05/17 11:43:45;;;;;;;7.68;3.50;;;;;;;18.58;49.67;99955.03;5089964;28;20036;-83
2022/05/17 11:46:29;;;;;;;6.43;3.75;;;;;;;18.74;50.05;99960.00;5101443;28;20512;-82
2022/05/17 11:48:58;;;;;;;6.00;3.40;;;;;;;18.81;49.61;99948.03;5112568;28;20484;-82
2022/05/17 11:51:30;;;;;;;8.07;4.23;;;;;;;18.89;49.06;99943.03;5112342;28;20480;-83
2022/05/17 11:53:55;;;;;;;8.18;4.13;;;;;;;18.94;49.13;99945.31;5112656;28;20038;-83
2022/05/17 11:56:24;;;;;;;9.73;4.40;;;;;;;19.00;48.76;99941.34;5112174;28;20511;-82